sensor_id;sensor_type;location;lat;lon;timestamp;P1;P2;P0
77892;PMS5003;67087;50.094;14.338;2023-05-10T00:00:52;4;4;
77892;PMS5003;67087;50.094;14.338;2023-05-10T00:03:18;4;4;
77892;PMS5003;67087;50.094;14.338;2023-05-10T00:05:43;5;5;
77892;PMS5003;67087;50.094;14.338;2023-05-10T00:08:08;4;4;
77892;PMS5003;67087;50.094;14.338;2023-05-10T00:10:33;3;3;
77892;PMS5003;67087;50.094;14.338;2023-05-10T00:12:58;3;3;
77892;PMS5003;67087;50.094;14.338;2023-05-10T00:15:23;4;4;
77892;PMS5003;67087;50.094;14.338;2023-05-10T00:17:48;3;3;
77892;PMS5003;67087;50.094;14.338;2023-05-10T00:20:14;3;3;
77892;PMS5003;67087;50.094;14.338;2023-05-10T00:22:39;3;3;
77892;PMS5003;67087;50.094;14.338;2023-05-10T00:25:05;3;3;
77892;PMS5003;67087;50.094;14.338;2023-05-10T00:27:29;4;4;
77892;PMS5003;67087;50.094;14.338;2023-05-10T00:29:54;3;3;
77892;PMS5003;67087;50.094;14.338;2023-05-10T00:32:19;3;3;
77892;PMS5003;67087;50.094;14.338;2023-05-10T00:34:44;3;3;
77892;PMS5003;67087;50.094;14.338;2023-05-10T00:37:10;3;3;
77892;PMS5003;67087;50.094;14.338;2023-05-10T00:39:35;2;2;
77892;PMS5003;67087;50.094;14.338;2023-05-10T00:42:00;4;4;
77892;PMS5003;67087;50.094;14.338;2023-05-10T00:44:25;3;3;
77892;PMS5003;67087;50.094;14.338;2023-05-10T00:46:50;4;4;
77892;PMS5003;67087;50.094;14.338;2023-05-10T00:49:15;3;3;
77892;PMS5003;67087;50.094;14.338;2023-05-10T00:51:40;3;3;
77892;PMS5003;67087;50.094;14.338;2023-05-10T00:54:06;2;2;
77892;PMS5003;67087;50.094;14.338;2023-05-10T00:56:31;5;5;
77892;PMS5003;67087;50.094;14.338;2023-05-10T00:58:56;4;4;
77892;PMS5003;67087;50.094;14.338;2023-05-10T01:01:21;2;2;
77892;PMS5003;67087;50.094;14.338;2023-05-10T01:03:46;4;4;
77892;PMS5003;67087;50.094;14.338;2023-05-10T01:06:11;3;3;
77892;PMS5003;67087;50.094;14.338;2023-05-10T01:08:36;2;2;
77892;PMS5003;67087;50.094;14.338;2023-05-10T01:11:01;5;4;
77892;PMS5003;67087;50.094;14.338;2023-05-10T01:13:30;3;2;
77892;PMS5003;67087;50.094;14.338;2023-05-10T01:15:52;4;4;
77892;PMS5003;67087;50.094;14.338;2023-05-10T01:18:17;5;5;
77892;PMS5003;67087;50.094;14.338;2023-05-10T01:20:43;4;4;
77892;PMS5003;67087;50.094;14.338;2023-05-10T01:23:12;3;3;
77892;PMS5003;67087;50.094;14.338;2023-05-10T01:25:38;3;3;
77892;PMS5003;67087;50.094;14.338;2023-05-10T01:28:03;4;4;
77892;PMS5003;67087;50.094;14.338;2023-05-10T01:30:29;4;4;
77892;PMS5003;67087;50.094;14.338;2023-05-10T01:32:48;4;4;
77892;PMS5003;67087;50.094;14.338;2023-05-10T01:35:15;3;3;
77892;PMS5003;67087;50.094;14.338;2023-05-10T01:37:40;3;3;
77892;PMS5003;67087;50.094;14.338;2023-05-10T01:40:06;4;4;
77892;PMS5003;67087;50.094;14.338;2023-05-10T01:42:29;3;3;
77892;PMS5003;67087;50.094;14.338;2023-05-10T01:44:55;4;3;
77892;PMS5003;67087;50.094;14.338;2023-05-10T01:47:20;5;5;
77892;PMS5003;67087;50.094;14.338;2023-05-10T01:49:45;4;4;
77892;PMS5003;67087;50.094;14.338;2023-05-10T01:52:09;4;3;
77892;PMS5003;67087;50.094;14.338;2023-05-10T01:54:34;3;3;
77892;PMS5003;67087;50.094;14.338;2023-05-10T01:57:00;2;2;
77892;PMS5003;67087;50.094;14.338;2023-05-10T01:59:25;4;4;
77892;PMS5003;67087;50.094;14.338;2023-05-10T02:01:49;2;2;
77892;PMS5003;67087;50.094;14.338;2023-05-10T02:04:15;3;3;
77892;PMS5003;67087;50.094;14.338;2023-05-10T02:06:40;4;3;
77892;PMS5003;67087;50.094;14.338;2023-05-10T02:09:05;2;2;
77892;PMS5003;67087;50.094;14.338;2023-05-10T02:11:30;2;2;
77892;PMS5003;67087;50.094;14.338;2023-05-10T02:13:55;3;3;
77892;PMS5003;67087;50.094;14.338;2023-05-10T02:16:21;4;4;
77892;PMS5003;67087;50.094;14.338;2023-05-10T02:18:45;2;2;
77892;PMS5003;67087;50.094;14.338;2023-05-10T02:21:10;4;4;
77892;PMS5003;67087;50.094;14.338;2023-05-10T02:23:36;3;3;
77892;PMS5003;67087;50.094;14.338;2023-05-10T02:26:01;2;2;
77892;PMS5003;67087;50.094;14.338;2023-05-10T02:28:26;3;3;
77892;PMS5003;67087;50.094;14.338;2023-05-10T02:30:51;3;3;
77892;PMS5003;67087;50.094;14.338;2023-05-10T02:33:16;2;2;
77892;PMS5003;67087;50.094;14.338;2023-05-10T02:35:41;4;4;
77892;PMS5003;67087;50.094;14.338;2023-05-10T02:38:07;2;1;
77892;PMS5003;67087;50.094;14.338;2023-05-10T02:40:32;3;3;
77892;PMS5003;67087;50.094;14.338;2023-05-10T02:42:57;3;3;
77892;PMS5003;67087;50.094;14.338;2023-05-10T02:45:23;4;4;
77892;PMS5003;67087;50.094;14.338;2023-05-10T02:47:47;3;3;
77892;PMS5003;67087;50.094;14.338;2023-05-10T02:50:12;2;2;
77892;PMS5003;67087;50.094;14.338;2023-05-10T02:52:39;2;2;
77892;PMS5003;67087;50.094;14.338;2023-05-10T02:55:03;3;3;
77892;PMS5003;67087;50.094;14.338;2023-05-10T02:57:28;3;3;
77892;PMS5003;67087;50.094;14.338;2023-05-10T02:59:53;3;3;
77892;PMS5003;67087;50.094;14.338;2023-05-10T03:02:18;1;1;
77892;PMS5003;67087;50.094;14.338;2023-05-10T03:04:43;2;2;
77892;PMS5003;67087;50.094;14.338;2023-05-10T03:07:08;3;3;
77892;PMS5003;67087;50.094;14.338;2023-05-10T03:09:33;3;3;
77892;PMS5003;67087;50.094;14.338;2023-05-10T03:12:00;2;2;
77892;PMS5003;67087;50.094;14.338;2023-05-10T03:14:28;5;4;
77892;PMS5003;67087;50.094;14.338;2023-05-10T03:16:52;4;4;
77892;PMS5003;67087;50.094;14.338;2023-05-10T03:19:16;4;4;
77892;PMS5003;67087;50.094;14.338;2023-05-10T03:21:40;4;4;
77892;PMS5003;67087;50.094;14.338;2023-05-10T03:24:05;2;2;
77892;PMS5003;67087;50.094;14.338;2023-05-10T03:26:29;4;4;
77892;PMS5003;67087;50.094;14.338;2023-05-10T03:28:55;3;3;
77892;PMS5003;67087;50.094;14.338;2023-05-10T03:31:20;3;3;
77892;PMS5003;67087;50.094;14.338;2023-05-10T03:33:46;2;2;
77892;PMS5003;67087;50.094;14.338;2023-05-10T03:36:10;1;1;
77892;PMS5003;67087;50.094;14.338;2023-05-10T03:38:35;3;3;
77892;PMS5003;67087;50.094;14.338;2023-05-10T03:41:00;3;3;
77892;PMS5003;67087;50.094;14.338;2023-05-10T03:43:25;2;2;
77892;PMS5003;67087;50.094;14.338;2023-05-10T03:45:50;3;3;
77892;PMS5003;67087;50.094;14.338;2023-05-10T03:48:15;3;3;
77892;PMS5003;67087;50.094;14.338;2023-05-10T03:50:41;3;2;
77892;PMS5003;67087;50.094;14.338;2023-05-10T03:53:06;3;3;
77892;PMS5003;67087;50.094;14.338;2023-05-10T03:55:31;3;3;
77892;PMS5003;67087;50.094;14.338;2023-05-10T03:57:56;3;3;
77892;PMS5003;67087;50.094;14.338;2023-05-10T04:00:21;1;1;
77892;PMS5003;67087;50.094;14.338;2023-05-10T04:02:46;2;2;
77892;PMS5003;67087;50.094;14.338;2023-05-10T04:05:11;2;2;
77892;PMS5003;67087;50.094;14.338;2023-05-10T04:07:37;3;3;
77892;PMS5003;67087;50.094;14.338;2023-05-10T04:10:02;3;3;
77892;PMS5003;67087;50.094;14.338;2023-05-10T04:12:27;3;3;
77892;PMS5003;67087;50.094;14.338;2023-05-10T04:14:52;3;3;
77892;PMS5003;67087;50.094;14.338;2023-05-10T04:17:17;2;2;
77892;PMS5003;67087;50.094;14.338;2023-05-10T04:19:42;2;2;
77892;PMS5003;67087;50.094;14.338;2023-05-10T04:22:07;4;3;
77892;PMS5003;67087;50.094;14.338;2023-05-10T04:24:33;2;2;
77892;PMS5003;67087;50.094;14.338;2023-05-10T04:26:58;3;3;
77892;PMS5003;67087;50.094;14.338;2023-05-10T04:29:23;3;3;
77892;PMS5003;67087;50.094;14.338;2023-05-10T04:31:48;4;4;
77892;PMS5003;67087;50.094;14.338;2023-05-10T04:34:13;2;2;
77892;PMS5003;67087;50.094;14.338;2023-05-10T04:36:38;3;3;
77892;PMS5003;67087;50.094;14.338;2023-05-10T04:39:04;2;2;
77892;PMS5003;67087;50.094;14.338;2023-05-10T04:41:28;3;2;
77892;PMS5003;67087;50.094;14.338;2023-05-10T04:43:54;2;2;
77892;PMS5003;67087;50.094;14.338;2023-05-10T04:46:19;3;3;
77892;PMS5003;67087;50.094;14.338;2023-05-10T04:48:44;4;3;
77892;PMS5003;67087;50.094;14.338;2023-05-10T04:51:09;3;3;
77892;PMS5003;67087;50.094;14.338;2023-05-10T04:53:34;2;2;
77892;PMS5003;67087;50.094;14.338;2023-05-10T04:55:59;3;3;
77892;PMS5003;67087;50.094;14.338;2023-05-10T04:58:24;3;3;
77892;PMS5003;67087;50.094;14.338;2023-05-10T05:00:50;3;3;
77892;PMS5003;67087;50.094;14.338;2023-05-10T05:03:15;2;2;
77892;PMS5003;67087;50.094;14.338;2023-05-10T05:05:40;4;4;
77892;PMS5003;67087;50.094;14.338;2023-05-10T05:08:06;4;4;
77892;PMS5003;67087;50.094;14.338;2023-05-10T05:10:31;5;5;
77892;PMS5003;67087;50.094;14.338;2023-05-10T05:12:56;3;3;
77892;PMS5003;67087;50.094;14.338;2023-05-10T05:15:21;2;2;
77892;PMS5003;67087;50.094;14.338;2023-05-10T05:17:47;3;2;
77892;PMS5003;67087;50.094;14.338;2023-05-10T05:20:12;5;4;
77892;PMS5003;67087;50.094;14.338;2023-05-10T05:22:37;3;3;
77892;PMS5003;67087;50.094;14.338;2023-05-10T05:25:02;3;3;
77892;PMS5003;67087;50.094;14.338;2023-05-10T05:27:27;3;3;
77892;PMS5003;67087;50.094;14.338;2023-05-10T05:29:53;3;3;
77892;PMS5003;67087;50.094;14.338;2023-05-10T05:32:18;4;3;
77892;PMS5003;67087;50.094;14.338;2023-05-10T05:34:44;3;3;
77892;PMS5003;67087;50.094;14.338;2023-05-10T05:37:12;4;4;
77892;PMS5003;67087;50.094;14.338;2023-05-10T05:39:35;2;2;
77892;PMS5003;67087;50.094;14.338;2023-05-10T05:41:59;4;4;
77892;PMS5003;67087;50.094;14.338;2023-05-10T05:44:24;5;4;
77892;PMS5003;67087;50.094;14.338;2023-05-10T05:46:50;5;4;
77892;PMS5003;67087;50.094;14.338;2023-05-10T05:49:15;4;4;
77892;PMS5003;67087;50.094;14.338;2023-05-10T05:51:40;6;5;
77892;PMS5003;67087;50.094;14.338;2023-05-10T05:54:06;5;4;
77892;PMS5003;67087;50.094;14.338;2023-05-10T05:56:31;4;3;
77892;PMS5003;67087;50.094;14.338;2023-05-10T05:58:56;6;5;
77892;PMS5003;67087;50.094;14.338;2023-05-10T06:01:21;8;7;
77892;PMS5003;67087;50.094;14.338;2023-05-10T06:03:46;5;5;
77892;PMS5003;67087;50.094;14.338;2023-05-10T06:06:11;4;4;
77892;PMS5003;67087;50.094;14.338;2023-05-10T06:08:36;6;6;
77892;PMS5003;67087;50.094;14.338;2023-05-10T06:11:01;5;5;
77892;PMS5003;67087;50.094;14.338;2023-05-10T06:13:27;5;5;
77892;PMS5003;67087;50.094;14.338;2023-05-10T06:15:52;5;4;
77892;PMS5003;67087;50.094;14.338;2023-05-10T06:18:17;6;6;
77892;PMS5003;67087;50.094;14.338;2023-05-10T06:20:42;6;6;
77892;PMS5003;67087;50.094;14.338;2023-05-10T06:23:08;8;7;
77892;PMS5003;67087;50.094;14.338;2023-05-10T06:25:33;7;6;
77892;PMS5003;67087;50.094;14.338;2023-05-10T06:27:58;6;6;
77892;PMS5003;67087;50.094;14.338;2023-05-10T06:30:23;3;3;
77892;PMS5003;67087;50.094;14.338;2023-05-10T06:32:48;5;5;
77892;PMS5003;67087;50.094;14.338;2023-05-10T06:35:13;4;4;
77892;PMS5003;67087;50.094;14.338;2023-05-10T06:37:38;5;4;
77892;PMS5003;67087;50.094;14.338;2023-05-10T06:40:04;2;2;
77892;PMS5003;67087;50.094;14.338;2023-05-10T06:42:29;5;5;
77892;PMS5003;67087;50.094;14.338;2023-05-10T06:44:54;6;5;
77892;PMS5003;67087;50.094;14.338;2023-05-10T06:47:19;5;5;
77892;PMS5003;67087;50.094;14.338;2023-05-10T06:49:44;6;6;
77892;PMS5003;67087;50.094;14.338;2023-05-10T06:52:09;6;6;
77892;PMS5003;67087;50.094;14.338;2023-05-10T06:54:34;6;6;
77892;PMS5003;67087;50.094;14.338;2023-05-10T06:56:59;4;4;
77892;PMS5003;67087;50.094;14.338;2023-05-10T06:59:25;5;5;
77892;PMS5003;67087;50.094;14.338;2023-05-10T07:01:50;7;7;
77892;PMS5003;67087;50.094;14.338;2023-05-10T07:04:15;11;11;
77892;PMS5003;67087;50.094;14.338;2023-05-10T07:06:40;11;11;
77892;PMS5003;67087;50.094;14.338;2023-05-10T07:09:06;14;13;
77892;PMS5003;67087;50.094;14.338;2023-05-10T07:11:31;13;11;
77892;PMS5003;67087;50.094;14.338;2023-05-10T07:13:56;17;17;
77892;PMS5003;67087;50.094;14.338;2023-05-10T07:16:21;13;12;
77892;PMS5003;67087;50.094;14.338;2023-05-10T07:18:46;17;16;
77892;PMS5003;67087;50.094;14.338;2023-05-10T07:21:12;17;16;
77892;PMS5003;67087;50.094;14.338;2023-05-10T07:23:37;23;22;
77892;PMS5003;67087;50.094;14.338;2023-05-10T07:26:03;19;19;
77892;PMS5003;67087;50.094;14.338;2023-05-10T07:28:28;12;11;
77892;PMS5003;67087;50.094;14.338;2023-05-10T07:30:53;15;14;
77892;PMS5003;67087;50.094;14.338;2023-05-10T07:33:18;12;12;
77892;PMS5003;67087;50.094;14.338;2023-05-10T07:35:44;14;13;
77892;PMS5003;67087;50.094;14.338;2023-05-10T07:38:09;15;14;
77892;PMS5003;67087;50.094;14.338;2023-05-10T07:40:35;15;13;
77892;PMS5003;67087;50.094;14.338;2023-05-10T07:43:00;14;13;
77892;PMS5003;67087;50.094;14.338;2023-05-10T07:45:26;13;10;
77892;PMS5003;67087;50.094;14.338;2023-05-10T07:47:51;16;14;
77892;PMS5003;67087;50.094;14.338;2023-05-10T07:50:17;14;14;
77892;PMS5003;67087;50.094;14.338;2023-05-10T07:52:43;13;12;
77892;PMS5003;67087;50.094;14.338;2023-05-10T07:55:08;16;15;
77892;PMS5003;67087;50.094;14.338;2023-05-10T07:57:33;13;13;
77892;PMS5003;67087;50.094;14.338;2023-05-10T07:59:59;14;13;
77892;PMS5003;67087;50.094;14.338;2023-05-10T08:02:24;12;12;
77892;PMS5003;67087;50.094;14.338;2023-05-10T08:04:50;12;11;
77892;PMS5003;67087;50.094;14.338;2023-05-10T08:07:15;9;9;
77892;PMS5003;67087;50.094;14.338;2023-05-10T08:09:40;11;9;
77892;PMS5003;67087;50.094;14.338;2023-05-10T08:12:06;11;9;
77892;PMS5003;67087;50.094;14.338;2023-05-10T08:14:30;13;12;
77892;PMS5003;67087;50.094;14.338;2023-05-10T08:16:55;10;8;
77892;PMS5003;67087;50.094;14.338;2023-05-10T08:19:21;10;10;
77892;PMS5003;67087;50.094;14.338;2023-05-10T08:21:46;7;7;
77892;PMS5003;67087;50.094;14.338;2023-05-10T08:24:11;8;8;
77892;PMS5003;67087;50.094;14.338;2023-05-10T08:26:37;8;7;
77892;PMS5003;67087;50.094;14.338;2023-05-10T08:29:02;12;12;
77892;PMS5003;67087;50.094;14.338;2023-05-10T08:31:27;9;9;
77892;PMS5003;67087;50.094;14.338;2023-05-10T08:33:53;8;8;
77892;PMS5003;67087;50.094;14.338;2023-05-10T08:36:18;7;6;
77892;PMS5003;67087;50.094;14.338;2023-05-10T08:38:43;8;7;
77892;PMS5003;67087;50.094;14.338;2023-05-10T08:41:09;7;6;
77892;PMS5003;67087;50.094;14.338;2023-05-10T08:43:34;6;6;
77892;PMS5003;67087;50.094;14.338;2023-05-10T08:46:00;8;8;
77892;PMS5003;67087;50.094;14.338;2023-05-10T08:48:24;9;8;
77892;PMS5003;67087;50.094;14.338;2023-05-10T08:50:49;9;8;
77892;PMS5003;67087;50.094;14.338;2023-05-10T08:53:15;7;7;
77892;PMS5003;67087;50.094;14.338;2023-05-10T08:55:40;4;4;
77892;PMS5003;67087;50.094;14.338;2023-05-10T08:58:05;7;6;
77892;PMS5003;67087;50.094;14.338;2023-05-10T09:00:30;8;8;
77892;PMS5003;67087;50.094;14.338;2023-05-10T09:02:55;6;6;
77892;PMS5003;67087;50.094;14.338;2023-05-10T09:05:20;6;6;
77892;PMS5003;67087;50.094;14.338;2023-05-10T09:07:45;7;7;
77892;PMS5003;67087;50.094;14.338;2023-05-10T09:10:11;7;7;
77892;PMS5003;67087;50.094;14.338;2023-05-10T09:12:36;6;6;
77892;PMS5003;67087;50.094;14.338;2023-05-10T09:15:01;7;7;
77892;PMS5003;67087;50.094;14.338;2023-05-10T09:17:26;7;7;
77892;PMS5003;67087;50.094;14.338;2023-05-10T09:22:16;7;7;
77892;PMS5003;67087;50.094;14.338;2023-05-10T09:24:42;7;7;
77892;PMS5003;67087;50.094;14.338;2023-05-10T09:27:06;6;6;
77892;PMS5003;67087;50.094;14.338;2023-05-10T09:31:57;9;9;
77892;PMS5003;67087;50.094;14.338;2023-05-10T09:34:28;6;6;
77892;PMS5003;67087;50.094;14.338;2023-05-10T09:36:51;7;7;
77892;PMS5003;67087;50.094;14.338;2023-05-10T09:39:12;9;9;
77892;PMS5003;67087;50.094;14.338;2023-05-10T09:41:37;7;7;
77892;PMS5003;67087;50.094;14.338;2023-05-10T09:44:03;8;8;
77892;PMS5003;67087;50.094;14.338;2023-05-10T09:46:28;10;9;
77892;PMS5003;67087;50.094;14.338;2023-05-10T09:48:53;8;8;
77892;PMS5003;67087;50.094;14.338;2023-05-10T09:51:19;8;7;
77892;PMS5003;67087;50.094;14.338;2023-05-10T09:53:43;7;7;
77892;PMS5003;67087;50.094;14.338;2023-05-10T09:56:09;7;7;
77892;PMS5003;67087;50.094;14.338;2023-05-10T09:58:36;7;7;
77892;PMS5003;67087;50.094;14.338;2023-05-10T10:00:59;8;8;
77892;PMS5003;67087;50.094;14.338;2023-05-10T10:03:24;9;8;
77892;PMS5003;67087;50.094;14.338;2023-05-10T10:05:49;9;8;
77892;PMS5003;67087;50.094;14.338;2023-05-10T10:08:15;7;7;
77892;PMS5003;67087;50.094;14.338;2023-05-10T10:10:40;7;6;
77892;PMS5003;67087;50.094;14.338;2023-05-10T10:13:05;8;8;
77892;PMS5003;67087;50.094;14.338;2023-05-10T10:15:30;6;6;
77892;PMS5003;67087;50.094;14.338;2023-05-10T10:17:55;7;7;
77892;PMS5003;67087;50.094;14.338;2023-05-10T10:20:21;7;7;
77892;PMS5003;67087;50.094;14.338;2023-05-10T10:22:46;9;9;
77892;PMS5003;67087;50.094;14.338;2023-05-10T10:25:12;7;6;
77892;PMS5003;67087;50.094;14.338;2023-05-10T10:27:38;7;7;
77892;PMS5003;67087;50.094;14.338;2023-05-10T10:30:04;8;8;
77892;PMS5003;67087;50.094;14.338;2023-05-10T10:32:29;8;7;
77892;PMS5003;67087;50.094;14.338;2023-05-10T10:34:52;7;7;
77892;PMS5003;67087;50.094;14.338;2023-05-10T10:37:17;11;10;
77892;PMS5003;67087;50.094;14.338;2023-05-10T10:39:42;8;8;
77892;PMS5003;67087;50.094;14.338;2023-05-10T10:42:07;7;7;
77892;PMS5003;67087;50.094;14.338;2023-05-10T10:44:34;7;7;
77892;PMS5003;67087;50.094;14.338;2023-05-10T10:46:59;7;7;
77892;PMS5003;67087;50.094;14.338;2023-05-10T10:49:23;6;6;
77892;PMS5003;67087;50.094;14.338;2023-05-10T10:54:13;7;7;
77892;PMS5003;67087;50.094;14.338;2023-05-10T10:56:38;8;8;
77892;PMS5003;67087;50.094;14.338;2023-05-10T10:59:03;8;8;
77892;PMS5003;67087;50.094;14.338;2023-05-10T11:01:32;9;9;
77892;PMS5003;67087;50.094;14.338;2023-05-10T11:08:44;8;7;
77892;PMS5003;67087;50.094;14.338;2023-05-10T11:11:09;9;9;
77892;PMS5003;67087;50.094;14.338;2023-05-10T11:13:37;6;6;
77892;PMS5003;67087;50.094;14.338;2023-05-10T11:18:26;7;6;
77892;PMS5003;67087;50.094;14.338;2023-05-10T11:20:50;6;6;
77892;PMS5003;67087;50.094;14.338;2023-05-10T11:23:15;9;9;
77892;PMS5003;67087;50.094;14.338;2023-05-10T11:25:41;8;6;
77892;PMS5003;67087;50.094;14.338;2023-05-10T11:28:06;10;8;
77892;PMS5003;67087;50.094;14.338;2023-05-10T11:30:31;7;7;
77892;PMS5003;67087;50.094;14.338;2023-05-10T11:32:56;6;6;
77892;PMS5003;67087;50.094;14.338;2023-05-10T11:35:21;8;8;
77892;PMS5003;67087;50.094;14.338;2023-05-10T11:37:47;8;8;
77892;PMS5003;67087;50.094;14.338;2023-05-10T11:40:12;8;8;
77892;PMS5003;67087;50.094;14.338;2023-05-10T11:42:37;8;8;
77892;PMS5003;67087;50.094;14.338;2023-05-10T11:45:02;7;7;
77892;PMS5003;67087;50.094;14.338;2023-05-10T11:47:27;6;6;
77892;PMS5003;67087;50.094;14.338;2023-05-10T11:49:52;8;8;
77892;PMS5003;67087;50.094;14.338;2023-05-10T11:52:18;7;7;
77892;PMS5003;67087;50.094;14.338;2023-05-10T11:54:45;7;7;
77892;PMS5003;67087;50.094;14.338;2023-05-10T11:57:07;8;8;
77892;PMS5003;67087;50.094;14.338;2023-05-10T11:59:33;9;8;
77892;PMS5003;67087;50.094;14.338;2023-05-10T12:01:58;9;8;
77892;PMS5003;67087;50.094;14.338;2023-05-10T12:04:23;7;7;
77892;PMS5003;67087;50.094;14.338;2023-05-10T12:06:48;8;7;
77892;PMS5003;67087;50.094;14.338;2023-05-10T12:09:13;9;9;
77892;PMS5003;67087;50.094;14.338;2023-05-10T12:11:39;9;8;
77892;PMS5003;67087;50.094;14.338;2023-05-10T12:14:04;8;8;
77892;PMS5003;67087;50.094;14.338;2023-05-10T12:16:29;7;7;
77892;PMS5003;67087;50.094;14.338;2023-05-10T12:18:55;7;6;
77892;PMS5003;67087;50.094;14.338;2023-05-10T12:21:19;7;7;
77892;PMS5003;67087;50.094;14.338;2023-05-10T12:23:45;7;7;
77892;PMS5003;67087;50.094;14.338;2023-05-10T12:26:09;7;7;
77892;PMS5003;67087;50.094;14.338;2023-05-10T12:28:34;8;8;
77892;PMS5003;67087;50.094;14.338;2023-05-10T12:31:00;9;9;
77892;PMS5003;67087;50.094;14.338;2023-05-10T12:33:25;7;7;
77892;PMS5003;67087;50.094;14.338;2023-05-10T12:35:51;6;6;
77892;PMS5003;67087;50.094;14.338;2023-05-10T12:40:40;7;7;
77892;PMS5003;67087;50.094;14.338;2023-05-10T12:43:05;8;8;
77892;PMS5003;67087;50.094;14.338;2023-05-10T12:45:30;8;8;
77892;PMS5003;67087;50.094;14.338;2023-05-10T12:47:56;7;7;
77892;PMS5003;67087;50.094;14.338;2023-05-10T12:50:21;9;9;
77892;PMS5003;67087;50.094;14.338;2023-05-10T12:52:46;8;8;
77892;PMS5003;67087;50.094;14.338;2023-05-10T12:55:11;8;8;
77892;PMS5003;67087;50.094;14.338;2023-05-10T12:57:36;6;6;
77892;PMS5003;67087;50.094;14.338;2023-05-10T13:00:01;9;9;
77892;PMS5003;67087;50.094;14.338;2023-05-10T13:02:26;6;5;
77892;PMS5003;67087;50.094;14.338;2023-05-10T13:04:52;7;7;
77892;PMS5003;67087;50.094;14.338;2023-05-10T13:07:17;7;7;
77892;PMS5003;67087;50.094;14.338;2023-05-10T13:09:42;8;8;
77892;PMS5003;67087;50.094;14.338;2023-05-10T13:12:07;8;8;
77892;PMS5003;67087;50.094;14.338;2023-05-10T13:14:32;7;7;
77892;PMS5003;67087;50.094;14.338;2023-05-10T13:16:57;8;8;
77892;PMS5003;67087;50.094;14.338;2023-05-10T13:19:23;7;7;
77892;PMS5003;67087;50.094;14.338;2023-05-10T13:21:48;8;8;
77892;PMS5003;67087;50.094;14.338;2023-05-10T13:24:13;9;9;
77892;PMS5003;67087;50.094;14.338;2023-05-10T13:26:38;6;6;
77892;PMS5003;67087;50.094;14.338;2023-05-10T13:29:04;9;7;
77892;PMS5003;67087;50.094;14.338;2023-05-10T13:31:28;6;6;
77892;PMS5003;67087;50.094;14.338;2023-05-10T13:33:54;7;7;
77892;PMS5003;67087;50.094;14.338;2023-05-10T13:36:19;8;8;
77892;PMS5003;67087;50.094;14.338;2023-05-10T13:38:44;7;7;
77892;PMS5003;67087;50.094;14.338;2023-05-10T13:41:09;9;9;
77892;PMS5003;67087;50.094;14.338;2023-05-10T13:43:34;6;6;
77892;PMS5003;67087;50.094;14.338;2023-05-10T13:45:59;8;8;
77892;PMS5003;67087;50.094;14.338;2023-05-10T13:48:25;8;8;
77892;PMS5003;67087;50.094;14.338;2023-05-10T13:50:50;9;9;
77892;PMS5003;67087;50.094;14.338;2023-05-10T13:53:15;9;9;
77892;PMS5003;67087;50.094;14.338;2023-05-10T13:55:41;7;7;
77892;PMS5003;67087;50.094;14.338;2023-05-10T13:58:06;8;7;
77892;PMS5003;67087;50.094;14.338;2023-05-10T14:00:31;8;7;
77892;PMS5003;67087;50.094;14.338;2023-05-10T14:02:56;5;5;
77892;PMS5003;67087;50.094;14.338;2023-05-10T14:05:21;8;8;
77892;PMS5003;67087;50.094;14.338;2023-05-10T14:07:46;7;7;
77892;PMS5003;67087;50.094;14.338;2023-05-10T14:10:12;9;8;
77892;PMS5003;67087;50.094;14.338;2023-05-10T14:12:37;9;9;
77892;PMS5003;67087;50.094;14.338;2023-05-10T14:15:02;9;8;
77892;PMS5003;67087;50.094;14.338;2023-05-10T14:17:27;7;7;
77892;PMS5003;67087;50.094;14.338;2023-05-10T14:19:52;5;4;
77892;PMS5003;67087;50.094;14.338;2023-05-10T14:22:17;8;7;
77892;PMS5003;67087;50.094;14.338;2023-05-10T14:24:42;7;7;
77892;PMS5003;67087;50.094;14.338;2023-05-10T14:27:08;10;9;
77892;PMS5003;67087;50.094;14.338;2023-05-10T14:29:33;9;7;
77892;PMS5003;67087;50.094;14.338;2023-05-10T14:31:59;7;7;
77892;PMS5003;67087;50.094;14.338;2023-05-10T14:34:24;9;9;
77892;PMS5003;67087;50.094;14.338;2023-05-10T14:36:49;9;9;
77892;PMS5003;67087;50.094;14.338;2023-05-10T14:39:15;8;8;
77892;PMS5003;67087;50.094;14.338;2023-05-10T14:41:40;8;7;
77892;PMS5003;67087;50.094;14.338;2023-05-10T14:44:05;11;10;
77892;PMS5003;67087;50.094;14.338;2023-05-10T14:46:30;9;9;
77892;PMS5003;67087;50.094;14.338;2023-05-10T14:48:55;10;10;
77892;PMS5003;67087;50.094;14.338;2023-05-10T14:51:20;10;10;
77892;PMS5003;67087;50.094;14.338;2023-05-10T14:53:46;11;11;
77892;PMS5003;67087;50.094;14.338;2023-05-10T14:56:11;11;10;
77892;PMS5003;67087;50.094;14.338;2023-05-10T14:58:36;8;8;
77892;PMS5003;67087;50.094;14.338;2023-05-10T15:01:01;10;9;
77892;PMS5003;67087;50.094;14.338;2023-05-10T15:03:27;9;9;
77892;PMS5003;67087;50.094;14.338;2023-05-10T15:05:52;12;11;
77892;PMS5003;67087;50.094;14.338;2023-05-10T15:08:17;12;11;
77892;PMS5003;67087;50.094;14.338;2023-05-10T15:10:43;12;12;
77892;PMS5003;67087;50.094;14.338;2023-05-10T15:13:08;11;11;
77892;PMS5003;67087;50.094;14.338;2023-05-10T15:15:33;12;12;
77892;PMS5003;67087;50.094;14.338;2023-05-10T15:17:58;13;11;
77892;PMS5003;67087;50.094;14.338;2023-05-10T15:20:24;13;13;
77892;PMS5003;67087;50.094;14.338;2023-05-10T15:22:49;12;12;
77892;PMS5003;67087;50.094;14.338;2023-05-10T15:25:15;10;10;
77892;PMS5003;67087;50.094;14.338;2023-05-10T15:27:40;19;18;
77892;PMS5003;67087;50.094;14.338;2023-05-10T15:30:06;39;33;
77892;PMS5003;67087;50.094;14.338;2023-05-10T15:32:31;31;30;
77892;PMS5003;67087;50.094;14.338;2023-05-10T15:34:56;31;31;
77892;PMS5003;67087;50.094;14.338;2023-05-10T15:37:22;21;20;
77892;PMS5003;67087;50.094;14.338;2023-05-10T15:39:47;19;19;
77892;PMS5003;67087;50.094;14.338;2023-05-10T15:42:12;22;22;
77892;PMS5003;67087;50.094;14.338;2023-05-10T15:44:38;19;19;
77892;PMS5003;67087;50.094;14.338;2023-05-10T15:47:04;23;22;
77892;PMS5003;67087;50.094;14.338;2023-05-10T15:49:29;27;26;
77892;PMS5003;67087;50.094;14.338;2023-05-10T15:51:54;32;29;
77892;PMS5003;67087;50.094;14.338;2023-05-10T15:54:20;28;26;
77892;PMS5003;67087;50.094;14.338;2023-05-10T15:56:46;22;21;
77892;PMS5003;67087;50.094;14.338;2023-05-10T15:59:11;24;20;
77892;PMS5003;67087;50.094;14.338;2023-05-10T16:01:36;24;24;
77892;PMS5003;67087;50.094;14.338;2023-05-10T16:04:02;19;17;
77892;PMS5003;67087;50.094;14.338;2023-05-10T16:06:28;18;18;
77892;PMS5003;67087;50.094;14.338;2023-05-10T16:08:53;18;16;
77892;PMS5003;67087;50.094;14.338;2023-05-10T16:11:18;18;18;
77892;PMS5003;67087;50.094;14.338;2023-05-10T16:13:44;22;21;
77892;PMS5003;67087;50.094;14.338;2023-05-10T16:16:10;20;19;
77892;PMS5003;67087;50.094;14.338;2023-05-10T16:18:36;18;17;
77892;PMS5003;67087;50.094;14.338;2023-05-10T16:21:01;20;17;
77892;PMS5003;67087;50.094;14.338;2023-05-10T16:23:27;21;21;
77892;PMS5003;67087;50.094;14.338;2023-05-10T16:25:52;18;18;
77892;PMS5003;67087;50.094;14.338;2023-05-10T16:28:17;19;18;
77892;PMS5003;67087;50.094;14.338;2023-05-10T16:30:42;17;16;